Decoded Metar for OJAQ (AQABA in JORDAN) (IATA:AQJ) | Meteo·Mobile Aviation Weather
aviador You're here:

OJAQ Decoded Metar

AQABA in JORDAN
Report Time2018-09-21 17:00:00
UTC Time2018-09-21 17:18:28
Flight Rules vfr VFR
Wind350° at 12 kt
W.Decomp.*RWY 01: 11.0 kt HW 4.7 kt LCW
W.Rank350° ranks 2
Current wind is above 350° avg. (10.2)
Visibility9999 m
Phenomena:N/A
Clouds:N/A
Expected CloudBase > 6,400 ft AGL from Temp-Dew spread
CeilingNone
Temp33°C (ISA +18)
Dew Point17°C (38% RH)
Heat Index33.4°C
AAT31.0°C
QNH1008 hPa
Density Alt2,680 ft
Elevation167 ft
Report Wrong Elevation
Raw Report
METAR OJAQ 211700Z 35012KT CAVOK 33/17 Q1008 NOSIG=

Extra information for OJAQ:More info

Metar Taf Metar & Taf Last 4 Metars F.Rules Stats Wind Profile Meteogram Temp Stats Airport Information Weather charts Add Link Nearby VenuesMetar ALERT Operation Metar Decoded Social comments